createdAt,value
2019-06-26T00:00:08.739Z,37.70
2019-06-26T00:02:37.454Z,37.70
2019-06-26T00:05:07.130Z,37.70
2019-06-26T00:07:36.116Z,37.70
2019-06-26T00:10:06.065Z,37.80
2019-06-26T00:12:35.016Z,37.80
2019-06-26T00:15:05.024Z,37.80
2019-06-26T00:17:33.717Z,37.70
2019-06-26T00:20:02.652Z,37.90
2019-06-26T00:22:31.369Z,37.80
2019-06-26T00:25:00.055Z,37.80
2019-06-26T00:27:28.748Z,38.10
2019-06-26T00:29:57.438Z,38.90
2019-06-26T00:32:26.101Z,38.10
2019-06-26T00:34:54.825Z,37.90
2019-06-26T00:37:23.576Z,37.80
2019-06-26T00:39:52.556Z,37.50
2019-06-26T00:42:21.263Z,37.00
2019-06-26T00:44:49.957Z,37.50
2019-06-26T00:47:18.696Z,37.50
2019-06-26T00:49:47.381Z,37.50
2019-06-26T00:52:16.140Z,38.00
2019-06-26T00:54:44.843Z,38.30
2019-06-26T00:57:13.574Z,38.10
2019-06-26T00:59:42.278Z,38.00
2019-06-26T01:02:10.980Z,37.90
2019-06-26T01:04:47.234Z,38.00
2019-06-26T01:07:15.959Z,38.10
2019-06-26T01:09:44.739Z,38.20
2019-06-26T01:12:13.455Z,38.30
2019-06-26T01:14:42.138Z,38.30
2019-06-26T01:17:11.038Z,38.40
2019-06-26T01:19:39.712Z,38.40
2019-06-26T01:22:08.382Z,38.60
2019-06-26T01:24:37.355Z,38.60
2019-06-26T01:27:06.062Z,38.70
2019-06-26T01:29:34.750Z,38.80
2019-06-26T01:32:03.421Z,38.90
2019-06-26T01:34:32.091Z,39.00
2019-06-26T01:37:00.807Z,39.20
2019-06-26T01:39:29.579Z,39.20
2019-06-26T01:41:58.562Z,39.30
2019-06-26T01:44:27.243Z,39.50
2019-06-26T01:46:55.921Z,39.40
2019-06-26T01:49:24.693Z,39.40
2019-06-26T01:51:53.496Z,39.60
2019-06-26T01:54:41.479Z,39.80
2019-06-26T01:57:10.147Z,39.90
2019-06-26T01:59:38.920Z,40.00
2019-06-26T02:02:07.614Z,40.20
2019-06-26T02:04:36.278Z,40.30
2019-06-26T02:07:04.959Z,40.60
2019-06-26T02:09:33.644Z,40.90
2019-06-26T02:12:02.630Z,40.90
2019-06-26T02:14:32.013Z,40.90
2019-06-26T02:17:00.791Z,40.80
2019-06-26T02:19:29.578Z,40.90
2019-06-26T02:21:58.302Z,40.80
2019-06-26T02:24:27.066Z,40.80
2019-06-26T02:26:55.742Z,41.20
2019-06-26T02:29:24.451Z,40.80
2019-06-26T02:31:53.197Z,41.00
2019-06-26T02:34:41.208Z,41.20
2019-06-26T02:37:09.892Z,41.30
2019-06-26T02:39:38.559Z,41.40
2019-06-26T02:42:07.284Z,41.50
2019-06-26T02:44:51.979Z,42.30
2019-06-26T02:47:19.417Z,41.70
2019-06-26T02:49:36.976Z,41.70
2019-06-26T02:52:05.710Z,41.90
2019-06-26T02:54:34.449Z,42.00
2019-06-26T02:57:03.141Z,42.10
2019-06-26T02:59:31.854Z,42.20
2019-06-26T03:02:00.525Z,42.20
2019-06-26T03:04:29.252Z,42.30
2019-06-26T03:06:57.964Z,42.40
2019-06-26T03:09:26.720Z,42.40
2019-06-26T03:11:55.404Z,42.40
2019-06-26T03:14:24.107Z,42.50
2019-06-26T03:16:52.888Z,42.50
2019-06-26T03:19:21.572Z,42.50
2019-06-26T03:21:50.373Z,42.60
2019-06-26T03:24:19.102Z,42.80
2019-06-26T03:26:47.772Z,42.90
2019-06-26T03:29:16.498Z,43.00
2019-06-26T03:31:45.209Z,43.10
2019-06-26T03:34:13.969Z,43.20
2019-06-26T03:36:42.742Z,43.40
2019-06-26T03:39:11.498Z,43.50
2019-06-26T03:41:40.177Z,43.60
2019-06-26T03:44:09.636Z,43.60
2019-06-26T03:46:38.523Z,43.80
2019-06-26T03:49:07.220Z,43.70
2019-06-26T03:51:35.913Z,43.90
2019-06-26T03:54:04.616Z,44.00
2019-06-26T03:56:33.308Z,44.10
2019-06-26T03:59:02.098Z,44.10
2019-06-26T04:01:31.057Z,44.30
2019-06-26T04:03:59.761Z,44.20
2019-06-26T04:06:28.451Z,44.60
2019-06-26T04:08:57.158Z,44.80
2019-06-26T04:11:25.861Z,44.80
2019-06-26T04:13:54.574Z,44.80
2019-06-26T04:16:23.318Z,44.80
2019-06-26T04:18:52.035Z,44.80
2019-06-26T04:21:20.722Z,44.80
2019-06-26T04:23:49.388Z,44.80
2019-06-26T04:26:18.106Z,44.70
2019-06-26T04:28:46.788Z,44.80
2019-06-26T04:31:15.482Z,44.80
2019-06-26T04:33:44.209Z,44.90
2019-06-26T04:36:12.961Z,45.10
2019-06-26T04:38:41.710Z,45.40
2019-06-26T04:41:10.423Z,45.60
2019-06-26T04:43:39.114Z,45.80
2019-06-26T04:46:07.804Z,45.80
2019-06-26T04:48:36.507Z,45.90
2019-06-26T04:51:05.517Z,46.20
2019-06-26T04:53:34.209Z,46.30
2019-06-26T04:56:02.944Z,46.50
2019-06-26T04:58:31.946Z,46.50
2019-06-26T05:01:00.671Z,46.60
2019-06-26T05:03:29.446Z,46.70
2019-06-26T05:05:58.159Z,46.90
2019-06-26T05:08:26.868Z,46.90
2019-06-26T05:10:55.554Z,46.90
2019-06-26T05:13:24.273Z,47.00
2019-06-26T05:15:53.002Z,47.10
2019-06-26T05:18:44.288Z,47.20
2019-06-26T05:21:13.034Z,47.30
2019-06-26T05:23:41.777Z,47.60
2019-06-26T05:26:10.486Z,47.80
2019-06-26T05:28:39.154Z,47.90
2019-06-26T05:31:07.824Z,48.00
2019-06-26T05:33:36.593Z,47.90
2019-06-26T05:36:05.275Z,47.90
2019-06-26T05:38:34.010Z,47.90
2019-06-26T05:41:02.818Z,47.90
2019-06-26T05:43:31.830Z,47.90
2019-06-26T05:46:00.524Z,47.80
2019-06-26T05:48:29.214Z,47.80
2019-06-26T05:50:57.933Z,47.90
2019-06-26T05:53:26.617Z,48.40
2019-06-26T05:55:55.337Z,47.70
2019-06-26T05:58:24.002Z,47.80
2019-06-26T06:00:52.712Z,47.70
2019-06-26T06:03:21.451Z,47.50
2019-06-26T06:05:50.371Z,47.50
2019-06-26T06:08:19.388Z,47.70
2019-06-26T06:10:48.264Z,47.60
2019-06-26T06:13:16.995Z,47.60
2019-06-26T06:15:45.666Z,47.60
2019-06-26T06:18:14.378Z,47.60
2019-06-26T06:20:43.067Z,47.30
2019-06-26T06:23:11.782Z,47.20
2019-06-26T06:25:40.496Z,47.10
2019-06-26T06:28:09.189Z,46.90
2019-06-26T06:30:37.868Z,46.80
2019-06-26T06:33:06.568Z,46.70
2019-06-26T06:35:35.309Z,46.50
2019-06-26T06:38:04.025Z,46.60
2019-06-26T06:40:32.695Z,46.80
2019-06-26T06:43:01.446Z,46.70
2019-06-26T06:45:31.180Z,46.40
2019-06-26T06:47:59.883Z,46.40
2019-06-26T06:50:28.551Z,46.50
2019-06-26T06:52:57.558Z,46.20
2019-06-26T06:55:26.292Z,46.10
2019-06-26T06:57:54.982Z,46.20
2019-06-26T07:00:23.922Z,46.40
2019-06-26T07:02:52.697Z,46.40
2019-06-26T07:05:21.441Z,46.10
2019-06-26T07:07:50.101Z,46.50
2019-06-26T07:10:19.018Z,46.60
2019-06-26T07:12:47.790Z,46.50
2019-06-26T07:15:18.497Z,46.70
2019-06-26T07:17:47.195Z,46.40
2019-06-26T07:20:16.452Z,46.30
2019-06-26T07:22:45.154Z,46.20
2019-06-26T07:25:14.830Z,45.90
2019-06-26T07:27:43.747Z,46.10
2019-06-26T07:30:12.821Z,45.90
2019-06-26T07:32:41.516Z,46.10
2019-06-26T07:35:10.817Z,45.90
2019-06-26T07:37:39.704Z,45.80
2019-06-26T07:40:09.763Z,45.50
2019-06-26T07:42:39.746Z,45.10
2019-06-26T07:45:09.235Z,45.20
2019-06-26T07:47:43.463Z,45.30
2019-06-26T07:50:09.266Z,45.30
2019-06-26T07:52:38.055Z,44.70
2019-06-26T07:55:11.952Z,44.80
2019-06-26T07:57:38.959Z,44.60
2019-06-26T08:00:09.522Z,44.50
2019-06-26T08:02:39.373Z,44.50
2019-06-26T08:05:09.566Z,44.40
2019-06-26T08:07:38.317Z,44.20
2019-06-26T08:10:08.862Z,43.90
2019-06-26T08:12:37.584Z,44.00
2019-06-26T08:15:07.611Z,43.80
2019-06-26T08:17:36.287Z,43.60
2019-06-26T08:20:06.542Z,43.20
2019-06-26T08:22:35.467Z,43.10
2019-06-26T08:25:06.619Z,42.20
2019-06-26T08:27:36.559Z,42.40
2019-06-26T08:30:08.357Z,42.00
2019-06-26T08:32:37.173Z,41.40
2019-06-26T08:35:09.277Z,41.40
2019-06-26T08:37:37.963Z,41.40
2019-06-26T08:40:07.150Z,40.50
2019-06-26T08:42:36.759Z,40.60
2019-06-26T08:45:07.671Z,39.90
2019-06-26T08:47:38.052Z,39.80
2019-06-26T08:50:08.421Z,39.80
2019-06-26T08:52:37.546Z,39.40
2019-06-26T08:55:07.455Z,39.20
2019-06-26T08:57:36.156Z,39.30
2019-06-26T09:00:09.640Z,39.40
2019-06-26T09:02:38.412Z,39.10
2019-06-26T09:05:07.890Z,38.90
2019-06-26T09:07:36.628Z,38.20
2019-06-26T09:10:08.676Z,38.10
2019-06-26T09:12:37.380Z,37.60
2019-06-26T09:15:07.575Z,37.10
2019-06-26T09:17:36.641Z,37.10
2019-06-26T09:20:06.871Z,37.00
2019-06-26T09:22:37.263Z,37.10
2019-06-26T09:25:20.860Z,37.70
2019-06-26T09:27:39.887Z,37.00
2019-06-26T09:30:10.929Z,37.00
2019-06-26T09:32:41.475Z,37.00
2019-06-26T09:35:10.170Z,37.10
2019-06-26T09:37:38.870Z,36.40
2019-06-26T09:40:08.084Z,36.50
2019-06-26T09:42:36.938Z,36.80
2019-06-26T09:45:09.634Z,36.40
2019-06-26T09:47:38.487Z,36.40
2019-06-26T09:50:07.776Z,36.20
2019-06-26T09:52:36.664Z,36.40
2019-06-26T09:55:09.390Z,36.70
2019-06-26T09:57:38.675Z,36.00
2019-06-26T10:00:13.485Z,36.10
2019-06-26T10:02:42.396Z,36.30
2019-06-26T10:05:11.310Z,36.60
2019-06-26T10:07:39.999Z,36.20
2019-06-26T10:10:09.132Z,35.70
2019-06-26T10:12:37.805Z,35.40
2019-06-26T10:15:07.326Z,34.90
2019-06-26T10:17:36.014Z,35.10
2019-06-26T10:20:07.509Z,35.00
2019-06-26T10:22:36.255Z,34.90
2019-06-26T10:25:05.972Z,35.00
2019-06-26T10:27:34.834Z,35.10
2019-06-26T10:30:04.122Z,34.50
2019-06-26T10:32:32.896Z,34.30
2019-06-26T10:35:01.765Z,34.10
2019-06-26T10:37:30.448Z,34.10
2019-06-26T10:39:59.188Z,33.80
2019-06-26T10:42:27.910Z,33.60
2019-06-26T10:44:56.610Z,33.00
2019-06-26T10:47:25.368Z,34.20
2019-06-26T10:49:54.065Z,33.70
2019-06-26T10:52:22.719Z,34.10
2019-06-26T10:54:51.689Z,34.50
2019-06-26T10:57:20.504Z,34.30
2019-06-26T10:59:49.263Z,33.90
2019-06-26T11:02:18.048Z,33.70
2019-06-26T11:04:47.044Z,33.70
2019-06-26T11:07:15.807Z,33.70
2019-06-26T11:09:44.496Z,33.30
2019-06-26T11:12:13.264Z,33.60
2019-06-26T11:14:41.992Z,33.80
2019-06-26T11:17:10.672Z,33.80
2019-06-26T11:19:43.918Z,33.80
2019-06-26T11:22:09.776Z,33.80
2019-06-26T11:24:39.725Z,34.20
2019-06-26T11:27:09.586Z,34.70
2019-06-26T11:29:38.324Z,34.50
2019-06-26T11:32:09.417Z,34.60
2019-06-26T11:34:37.798Z,34.40
2019-06-26T11:37:06.539Z,34.00
2019-06-26T11:39:37.134Z,34.00
2019-06-26T11:42:05.985Z,33.60
2019-06-26T11:44:34.658Z,34.00
2019-06-26T11:47:03.392Z,33.90
2019-06-26T11:49:32.410Z,33.90
2019-06-26T11:52:01.323Z,33.80
2019-06-26T11:54:29.990Z,34.10
2019-06-26T11:56:58.723Z,34.10
2019-06-26T11:59:27.741Z,34.40
2019-06-26T12:01:56.475Z,33.30
2019-06-26T12:04:26.402Z,33.10
2019-06-26T12:06:55.184Z,33.20
2019-06-26T12:09:23.874Z,33.10
2019-06-26T12:11:52.560Z,32.90
2019-06-26T12:14:21.431Z,32.10
2019-06-26T12:16:50.417Z,33.30
2019-06-26T12:19:23.311Z,32.90
2019-06-26T12:21:49.896Z,32.90
2019-06-26T12:24:18.656Z,32.90
2019-06-26T12:26:47.335Z,32.90
2019-06-26T12:29:16.124Z,32.80
2019-06-26T12:31:45.029Z,32.80
2019-06-26T12:34:13.710Z,32.80
2019-06-26T12:36:42.411Z,32.80
2019-06-26T12:39:15.899Z,33.70
2019-06-26T12:41:44.601Z,33.60
2019-06-26T12:44:13.474Z,33.80
2019-06-26T12:46:42.145Z,32.90
2019-06-26T12:49:10.850Z,32.90
2019-06-26T12:51:39.791Z,33.00
2019-06-26T12:54:08.559Z,33.70
2019-06-26T12:56:37.319Z,33.80
2019-06-26T12:59:06.099Z,33.00
2019-06-26T13:01:34.921Z,32.50
2019-06-26T13:04:03.626Z,32.70
2019-06-26T13:06:32.296Z,33.00
2019-06-26T13:09:01.070Z,33.00
2019-06-26T13:11:29.982Z,33.10
2019-06-26T13:14:03.031Z,33.00
2019-06-26T13:16:29.103Z,33.00
2019-06-26T13:18:57.839Z,32.90
2019-06-26T13:21:26.614Z,33.00
2019-06-26T13:23:55.362Z,33.00
2019-06-26T13:26:24.131Z,33.10
2019-06-26T13:28:52.866Z,32.80
2019-06-26T13:31:21.591Z,32.10
2019-06-26T13:33:50.254Z,33.00
2019-06-26T13:36:18.985Z,33.00
2019-06-26T13:38:47.868Z,32.40
2019-06-26T13:41:16.611Z,32.40
2019-06-26T13:43:45.381Z,33.00
2019-06-26T13:46:14.110Z,33.10
2019-06-26T13:48:42.939Z,33.00
2019-06-26T13:51:11.929Z,33.40
2019-06-26T13:53:40.621Z,33.10
2019-06-26T13:56:09.334Z,33.00
2019-06-26T13:58:38.046Z,33.00
2019-06-26T14:01:06.768Z,32.90
2019-06-26T14:03:35.463Z,33.00
2019-06-26T14:06:04.160Z,33.00
2019-06-26T14:08:33.069Z,32.70
2019-06-26T14:11:02.112Z,32.80
2019-06-26T14:13:30.899Z,33.00
2019-06-26T14:15:59.638Z,33.10
2019-06-26T14:18:30.366Z,33.10
2019-06-26T14:20:59.595Z,33.30
2019-06-26T14:23:37.824Z,33.60
2019-06-26T14:26:09.703Z,33.10
2019-06-26T14:28:39.805Z,33.50
2019-06-26T14:31:08.610Z,33.50
2019-06-26T14:33:38.907Z,33.50
2019-06-26T14:36:07.827Z,33.80
2019-06-26T14:38:36.633Z,34.00
2019-06-26T14:41:05.369Z,34.00
2019-06-26T14:43:34.085Z,34.80
2019-06-26T14:46:22.037Z,34.20
2019-06-26T14:48:50.733Z,34.10
2019-06-26T14:51:19.411Z,34.20
2019-06-26T14:53:48.127Z,34.50
2019-06-26T14:56:16.876Z,34.80
2019-06-26T14:58:47.064Z,34.90
2019-06-26T15:01:15.774Z,34.10
2019-06-26T15:03:44.821Z,33.30
2019-06-26T15:06:17.021Z,34.00
2019-06-26T15:08:44.319Z,34.80
2019-06-26T15:11:15.504Z,33.90
2019-06-26T15:13:43.928Z,33.70
2019-06-26T15:16:12.651Z,34.00
2019-06-26T15:18:41.400Z,34.00
2019-06-26T15:21:10.127Z,33.40
2019-06-26T15:23:38.928Z,33.50
2019-06-26T15:26:07.930Z,33.50
2019-06-26T15:28:36.603Z,33.40
2019-06-26T15:31:05.495Z,33.30
2019-06-26T15:33:36.575Z,33.60
2019-06-26T15:36:04.816Z,33.80
2019-06-26T15:38:33.530Z,33.40
2019-06-26T15:41:02.202Z,33.40
2019-06-26T15:43:30.989Z,33.50
2019-06-26T15:45:59.764Z,33.50
2019-06-26T15:48:28.456Z,33.50
2019-06-26T15:50:57.246Z,33.50
2019-06-26T15:53:26.192Z,33.50
2019-06-26T15:55:54.878Z,33.50
2019-06-26T15:58:23.686Z,33.50
2019-06-26T16:00:52.375Z,33.40
2019-06-26T16:03:30.017Z,33.40
2019-06-26T16:05:58.755Z,33.30
2019-06-26T16:08:27.550Z,33.30
2019-06-26T16:10:56.227Z,33.20
2019-06-26T16:13:24.936Z,33.30
2019-06-26T16:15:53.640Z,33.40
2019-06-26T16:18:23.966Z,33.30
2019-06-26T16:20:52.637Z,33.50
2019-06-26T16:23:21.360Z,33.90
2019-06-26T16:25:50.184Z,33.70
2019-06-26T16:28:18.896Z,34.00
2019-06-26T16:30:47.668Z,34.20
2019-06-26T16:33:16.354Z,34.40
2019-06-26T16:35:45.233Z,34.60
2019-06-26T16:38:14.061Z,34.40
2019-06-26T16:40:42.732Z,34.70
2019-06-26T16:43:11.426Z,34.70
2019-06-26T16:45:40.106Z,34.60
2019-06-26T16:48:08.884Z,34.90
2019-06-26T16:50:37.572Z,34.90
2019-06-26T16:53:06.255Z,34.70
2019-06-26T16:55:34.929Z,34.80
2019-06-26T16:58:03.639Z,35.10
2019-06-26T17:00:32.608Z,34.80
2019-06-26T17:03:01.276Z,34.60
2019-06-26T17:05:29.959Z,34.70
2019-06-26T17:07:58.678Z,34.90
2019-06-26T17:10:27.362Z,35.30
2019-06-26T17:12:56.061Z,35.10
2019-06-26T17:15:24.727Z,35.20
2019-06-26T17:17:53.608Z,35.50
2019-06-26T17:20:22.486Z,36.10
2019-06-26T17:23:04.413Z,36.50
2019-06-26T17:25:21.709Z,37.10
2019-06-26T17:27:50.454Z,37.20
2019-06-26T17:30:19.465Z,37.30
2019-06-26T17:32:49.484Z,37.20
2019-06-26T17:35:18.211Z,37.10
2019-06-26T17:37:46.903Z,37.00
2019-06-26T17:40:16.373Z,37.40
2019-06-26T17:42:45.866Z,37.30
2019-06-26T17:45:14.720Z,37.70
2019-06-26T17:47:43.722Z,37.80
2019-06-26T17:50:12.690Z,37.80
2019-06-26T17:52:41.418Z,37.80
2019-06-26T17:55:10.803Z,37.00
2019-06-26T17:57:39.796Z,36.80
2019-06-26T18:00:10.754Z,37.00
2019-06-26T18:02:39.619Z,37.20
2019-06-26T18:05:09.581Z,37.20
2019-06-26T18:07:38.295Z,37.10
2019-06-26T18:10:07.542Z,37.40
2019-06-26T18:12:36.276Z,37.70
2019-06-26T18:15:07.049Z,37.90
2019-06-26T18:17:35.992Z,37.80
2019-06-26T18:20:06.621Z,37.80
2019-06-26T18:22:35.878Z,37.60
2019-06-26T18:25:08.460Z,37.70
2019-06-26T18:27:37.205Z,37.80
2019-06-26T18:30:10.754Z,37.90
2019-06-26T18:32:39.570Z,37.70
2019-06-26T18:35:08.822Z,37.80
2019-06-26T18:37:37.548Z,37.90
2019-06-26T18:40:08.005Z,37.60
2019-06-26T18:42:37.254Z,37.70
2019-06-26T18:45:06.551Z,37.50
2019-06-26T18:47:35.230Z,37.50
2019-06-26T18:50:06.242Z,37.60
2019-06-26T18:52:34.960Z,37.50
2019-06-26T18:55:05.485Z,37.50
2019-06-26T18:57:34.171Z,37.40
2019-06-26T19:00:03.638Z,38.10
2019-06-26T19:02:32.634Z,37.40
2019-06-26T19:05:20.563Z,37.40
2019-06-26T19:07:49.892Z,37.60
2019-06-26T19:10:21.971Z,37.30
2019-06-26T19:12:53.651Z,37.50
2019-06-26T19:15:29.647Z,37.70
2019-06-26T19:17:59.009Z,37.60
2019-06-26T19:20:28.694Z,37.70
2019-06-26T19:22:57.645Z,37.70
2019-06-26T19:28:04.864Z,37.20
2019-06-26T19:30:34.231Z,37.20
2019-06-26T19:33:04.867Z,37.10
2019-06-26T19:35:34.784Z,37.30
2019-06-26T19:38:07.225Z,38.10
2019-06-26T19:40:36.831Z,37.90
2019-06-26T19:43:05.973Z,38.00
2019-06-26T19:45:34.672Z,38.10
2019-06-26T19:48:03.520Z,38.30
2019-06-26T19:50:32.194Z,38.50
2019-06-26T19:53:03.077Z,38.30
2019-06-26T19:55:31.804Z,38.20
2019-06-26T19:58:00.487Z,38.30
2019-06-26T20:00:29.829Z,38.30
2019-06-26T20:02:58.552Z,38.30
2019-06-26T20:05:28.005Z,38.80
2019-06-26T20:07:56.710Z,38.50
2019-06-26T20:10:25.621Z,38.60
2019-06-26T20:12:54.317Z,38.50
2019-06-26T20:15:23.079Z,38.50
2019-06-26T20:17:51.915Z,38.30
2019-06-26T20:20:20.697Z,38.50
2019-06-26T20:22:49.389Z,38.60
2019-06-26T20:25:18.993Z,38.40
2019-06-26T20:27:47.968Z,38.20
2019-06-26T20:30:18.135Z,37.80
2019-06-26T20:32:48.455Z,38.10
2019-06-26T20:35:17.414Z,38.00
2019-06-26T20:37:46.176Z,37.90
2019-06-26T20:40:15.185Z,37.90
2019-06-26T20:42:43.898Z,37.90
2019-06-26T20:45:13.545Z,37.90
2019-06-26T20:47:42.272Z,37.90
2019-06-26T20:50:11.331Z,38.60
2019-06-26T20:52:40.053Z,38.20
2019-06-26T20:55:08.724Z,38.50
2019-06-26T20:57:37.425Z,38.90
2019-06-26T21:00:08.918Z,38.90
2019-06-26T21:02:37.856Z,38.80
2019-06-26T21:05:07.471Z,38.90
2019-06-26T21:07:36.247Z,38.80
2019-06-26T21:10:05.941Z,38.80
2019-06-26T21:12:34.635Z,39.00
2019-06-26T21:15:03.718Z,39.00
2019-06-26T21:17:32.413Z,39.50
2019-06-26T21:20:01.187Z,39.70
2019-06-26T21:22:29.907Z,39.90
2019-06-26T21:24:58.618Z,39.90
2019-06-26T21:27:27.382Z,40.20
2019-06-26T21:29:56.065Z,40.30
2019-06-26T21:32:24.952Z,40.20
2019-06-26T21:34:53.631Z,40.40
2019-06-26T21:37:22.331Z,40.40
2019-06-26T21:39:51.222Z,40.70
2019-06-26T21:42:20.231Z,40.70
2019-06-26T21:44:48.928Z,40.80
2019-06-26T21:47:17.807Z,40.90
2019-06-26T21:49:46.505Z,41.00
2019-06-26T21:52:15.257Z,41.10
2019-06-26T21:54:44.011Z,41.10
2019-06-26T21:57:12.686Z,41.20
2019-06-26T21:59:41.512Z,41.30
2019-06-26T22:02:10.186Z,41.40
2019-06-26T22:04:38.927Z,41.50
2019-06-26T22:07:07.637Z,41.60
2019-06-26T22:09:36.355Z,41.90
2019-06-26T22:12:05.031Z,42.10
2019-06-26T22:14:33.746Z,42.40
2019-06-26T22:17:02.447Z,42.20
2019-06-26T22:19:31.423Z,42.00
2019-06-26T22:22:00.116Z,41.90
2019-06-26T22:24:29.022Z,42.40
2019-06-26T22:26:57.682Z,41.90
2019-06-26T22:29:26.354Z,42.30
2019-06-26T22:31:55.062Z,42.60
2019-06-26T22:34:23.870Z,42.60
2019-06-26T22:36:52.578Z,42.50
2019-06-26T22:39:21.400Z,42.40
2019-06-26T22:41:50.116Z,42.40
2019-06-26T22:44:18.841Z,42.30
2019-06-26T22:46:47.534Z,42.30
2019-06-26T22:49:16.339Z,42.30
2019-06-26T22:51:45.053Z,42.70
2019-06-26T22:54:14.075Z,42.90
2019-06-26T22:56:42.962Z,43.20
2019-06-26T22:59:11.627Z,43.50
2019-06-26T23:01:40.446Z,43.50
2019-06-26T23:04:09.536Z,43.50
2019-06-26T23:06:38.295Z,43.50
2019-06-26T23:09:07.622Z,43.60
2019-06-26T23:11:36.320Z,43.60
2019-06-26T23:14:05.035Z,43.60
2019-06-26T23:16:33.741Z,43.50
2019-06-26T23:19:02.471Z,43.60
2019-06-26T23:21:31.163Z,43.60
2019-06-26T23:23:59.883Z,43.40
2019-06-26T23:26:28.560Z,43.50
2019-06-26T23:28:57.274Z,43.70
2019-06-26T23:31:26.003Z,43.60
2019-06-26T23:33:54.696Z,43.60
2019-06-26T23:36:23.579Z,43.60
2019-06-26T23:38:52.289Z,43.90
2019-06-26T23:41:20.964Z,43.90
2019-06-26T23:43:49.677Z,44.30
2019-06-26T23:46:18.519Z,44.30
2019-06-26T23:48:47.469Z,44.60
2019-06-26T23:51:16.273Z,44.90
2019-06-26T23:53:45.074Z,44.80
2019-06-26T23:56:13.837Z,44.70
2019-06-26T23:58:42.569Z,44.80
